createdAt,value
2018-05-02T00:00:20.090Z,9.20
2018-05-02T00:02:49.900Z,9.20
2018-05-02T00:05:19.628Z,9.10
2018-05-02T00:07:49.412Z,9.00
2018-05-02T00:10:18.870Z,9.00
2018-05-02T00:12:49.397Z,9.10
2018-05-02T00:15:19.163Z,9.10
2018-05-02T00:17:48.919Z,9.10
2018-05-02T00:20:19.473Z,9.00
2018-05-02T00:22:49.997Z,9.00
2018-05-02T00:25:20.547Z,8.90
2018-05-02T00:27:50.581Z,8.90
2018-05-02T00:30:20.375Z,8.90
2018-05-02T00:32:49.879Z,8.90
2018-05-02T00:35:20.380Z,8.90
2018-05-02T00:37:50.980Z,8.80
2018-05-02T00:40:20.679Z,8.80
2018-05-02T00:42:50.469Z,8.80
2018-05-02T00:45:20.261Z,8.80
2018-05-02T00:47:50.788Z,8.60
2018-05-02T00:50:21.340Z,8.60
2018-05-02T00:52:51.147Z,8.50
2018-05-02T00:55:20.897Z,8.60
2018-05-02T00:57:50.681Z,8.70
2018-05-02T01:00:20.485Z,8.70
2018-05-02T01:02:49.906Z,8.70
2018-05-02T01:05:19.676Z,8.60
2018-05-02T01:07:48.960Z,8.60
2018-05-02T01:10:18.964Z,8.30
2018-05-02T01:12:48.712Z,8.30
2018-05-02T01:15:19.246Z,8.30
2018-05-02T01:17:49.024Z,8.30
2018-05-02T01:20:18.806Z,8.30
2018-05-02T01:22:48.528Z,8.20
2018-05-02T01:25:18.333Z,8.10
2018-05-02T01:27:48.120Z,8.10
2018-05-02T01:30:17.900Z,8.10
2018-05-02T01:32:47.660Z,8.10
2018-05-02T01:35:17.434Z,8.10
2018-05-02T01:37:48.012Z,8.00
2018-05-02T01:40:17.751Z,8.00
2018-05-02T01:42:47.209Z,8.00
2018-05-02T01:45:16.938Z,7.90
2018-05-02T01:47:46.688Z,7.90
2018-05-02T01:50:16.446Z,7.90
2018-05-02T01:52:46.200Z,7.90
2018-05-02T01:55:15.996Z,7.80
2018-05-02T01:57:45.770Z,7.80
2018-05-02T02:00:15.526Z,7.80
2018-05-02T02:02:45.756Z,7.80
2018-05-02T02:05:15.569Z,7.70
2018-05-02T02:07:45.345Z,7.80
2018-05-02T02:10:14.859Z,7.90
2018-05-02T02:12:44.342Z,7.90
2018-05-02T02:15:13.872Z,7.90
2018-05-02T02:17:43.669Z,7.90
2018-05-02T02:20:13.399Z,7.80
2018-05-02T02:22:42.895Z,7.70
2018-05-02T02:25:12.669Z,7.80
2018-05-02T02:27:43.244Z,7.90
2018-05-02T02:30:12.977Z,7.90
2018-05-02T02:32:42.781Z,7.90
2018-05-02T02:35:12.289Z,7.80
2018-05-02T02:37:42.083Z,7.70
2018-05-02T02:40:11.870Z,7.70
2018-05-02T02:42:41.386Z,7.80
2018-05-02T02:45:10.798Z,7.70
2018-05-02T02:47:40.560Z,7.80
2018-05-02T02:50:10.349Z,7.80
2018-05-02T02:52:40.106Z,7.70
2018-05-02T02:55:10.388Z,7.60
2018-05-02T02:57:40.142Z,7.60
2018-05-02T03:00:09.964Z,7.60
2018-05-02T03:02:39.789Z,7.50
2018-05-02T03:05:09.632Z,7.40
2018-05-02T03:07:39.539Z,7.40
2018-05-02T03:10:09.300Z,7.40
2018-05-02T03:12:39.822Z,7.50
2018-05-02T03:15:10.369Z,7.60
2018-05-02T03:17:40.139Z,7.60
2018-05-02T03:20:09.909Z,7.70
2018-05-02T03:22:39.648Z,7.70
2018-05-02T03:25:09.172Z,7.70
2018-05-02T03:27:38.997Z,7.60
2018-05-02T03:30:08.754Z,7.60
2018-05-02T03:32:38.540Z,7.60
2018-05-02T03:35:09.066Z,7.60
2018-05-02T03:37:39.577Z,7.50
2018-05-02T03:40:10.131Z,7.60
2018-05-02T03:42:40.679Z,7.60
2018-05-02T03:45:10.418Z,7.60
2018-05-02T03:47:40.214Z,7.50
2018-05-02T03:50:09.767Z,7.40
2018-05-02T03:52:39.524Z,7.50
2018-05-02T03:55:09.317Z,7.50
2018-05-02T03:57:39.812Z,7.70
2018-05-02T04:00:20.836Z,7.60
2018-05-02T04:03:01.600Z,7.60
2018-05-02T04:05:42.227Z,7.50
2018-05-02T04:08:12.484Z,7.50
2018-05-02T04:10:42.305Z,7.50
2018-05-02T04:13:11.877Z,7.60
2018-05-02T04:15:41.641Z,7.70
2018-05-02T04:18:11.439Z,7.90
2018-05-02T04:20:41.209Z,8.00
2018-05-02T04:23:10.736Z,8.00
2018-05-02T04:25:40.958Z,8.00
2018-05-02T04:28:11.507Z,8.10
2018-05-02T04:30:41.273Z,8.10
2018-05-02T04:33:11.465Z,8.20
2018-05-02T04:35:41.254Z,8.20
2018-05-02T04:38:11.032Z,8.20
2018-05-02T04:40:41.554Z,8.30
2018-05-02T04:43:12.310Z,8.30
2018-05-02T04:45:42.196Z,8.30
2018-05-02T04:48:12.007Z,8.30
2018-05-02T04:50:41.776Z,8.40
2018-05-02T04:53:11.545Z,8.50
2018-05-02T04:55:42.133Z,8.50
2018-05-02T04:58:11.911Z,8.50
2018-05-02T05:00:41.429Z,8.50
2018-05-02T05:03:11.228Z,8.50
2018-05-02T05:05:42.027Z,8.70
2018-05-02T05:08:11.756Z,8.70
2018-05-02T05:10:42.290Z,8.80
2018-05-02T05:13:12.839Z,8.80
2018-05-02T05:15:42.612Z,8.80
2018-05-02T05:18:12.359Z,8.90
2018-05-02T05:20:42.136Z,9.10
2018-05-02T05:23:11.943Z,9.50
2018-05-02T05:25:41.676Z,9.90
2018-05-02T05:28:12.298Z,10.50
2018-05-02T05:30:42.202Z,10.50
2018-05-02T05:33:12.016Z,10.60
2018-05-02T05:35:41.820Z,10.70
2018-05-02T05:38:11.585Z,10.70
2018-05-02T05:40:41.385Z,10.60
2018-05-02T05:43:11.973Z,10.70
2018-05-02T05:45:41.811Z,10.70
2018-05-02T05:48:11.579Z,10.70
2018-05-02T05:50:41.353Z,10.80
2018-05-02T05:53:11.140Z,10.90
2018-05-02T05:55:41.714Z,11.10
2018-05-02T05:58:11.521Z,11.10
2018-05-02T06:00:40.999Z,11.30
2018-05-02T06:03:11.512Z,11.70
2018-05-02T06:05:41.279Z,11.60
2018-05-02T06:08:11.046Z,11.70
2018-05-02T06:10:41.600Z,11.70
2018-05-02T06:13:11.599Z,11.60
2018-05-02T06:15:42.161Z,11.80
2018-05-02T06:18:11.623Z,11.70
2018-05-02T06:20:41.463Z,11.90
2018-05-02T06:23:11.226Z,11.90
2018-05-02T06:25:40.893Z,12.00
2018-05-02T06:28:11.223Z,12.20
2018-05-02T06:30:40.972Z,12.20
2018-05-02T06:33:10.796Z,12.40
2018-05-02T06:35:40.605Z,12.50
2018-05-02T06:38:10.371Z,12.70
2018-05-02T06:40:40.214Z,12.90
2018-05-02T06:43:10.004Z,13.00
2018-05-02T06:45:39.848Z,13.00
2018-05-02T06:48:09.424Z,13.20
2018-05-02T06:50:38.838Z,13.00
2018-05-02T06:53:08.995Z,13.30
2018-05-02T06:55:39.309Z,13.30
2018-05-02T06:58:09.348Z,13.50
2018-05-02T07:00:40.084Z,14.00
2018-05-02T07:03:10.641Z,14.30
2018-05-02T07:05:41.152Z,14.60
2018-05-02T07:08:11.672Z,14.60
2018-05-02T07:10:41.445Z,14.60
2018-05-02T07:13:10.916Z,14.60
2018-05-02T07:15:41.448Z,14.90
2018-05-02T07:18:11.227Z,14.90
2018-05-02T07:20:40.719Z,15.00
2018-05-02T07:23:10.703Z,15.00
2018-05-02T07:25:40.491Z,15.20
2018-05-02T07:28:10.286Z,15.30
2018-05-02T07:30:40.073Z,15.50
2018-05-02T07:33:09.872Z,15.10
2018-05-02T07:35:39.649Z,15.10
2018-05-02T07:38:09.488Z,15.50
2018-05-02T07:40:39.338Z,15.60
2018-05-02T07:43:09.131Z,15.80
2018-05-02T07:45:38.880Z,15.90
2018-05-02T07:48:09.460Z,16.00
2018-05-02T07:50:39.342Z,16.00
2018-05-02T07:53:09.139Z,16.30
2018-05-02T07:55:38.653Z,16.10
2018-05-02T07:58:08.135Z,16.40
2018-05-02T08:00:37.375Z,16.60
2018-05-02T08:03:06.879Z,17.00
2018-05-02T08:05:36.406Z,16.90
2018-05-02T08:08:06.702Z,17.20
2018-05-02T08:10:36.422Z,17.20
2018-05-02T08:13:05.586Z,17.30
2018-05-02T08:15:35.092Z,17.30
2018-05-02T08:18:04.642Z,17.50
2018-05-02T08:20:34.151Z,17.70
2018-05-02T08:23:04.461Z,17.80
2018-05-02T08:25:33.958Z,17.80
2018-05-02T08:28:03.487Z,17.90
2018-05-02T08:30:34.612Z,17.90
2018-05-02T08:33:04.164Z,17.90
2018-05-02T08:35:33.666Z,17.90
2018-05-02T08:38:03.978Z,18.00
2018-05-02T08:40:34.447Z,17.90
2018-05-02T08:43:03.958Z,17.90
2018-05-02T08:45:33.525Z,18.00
2018-05-02T08:48:02.737Z,17.80
2018-05-02T08:50:34.490Z,18.00
2018-05-02T08:53:04.082Z,18.00
2018-05-02T08:55:34.688Z,17.70
2018-05-02T08:58:04.467Z,17.60
2018-05-02T09:00:34.037Z,17.00
2018-05-02T09:03:03.260Z,16.80
2018-05-02T09:05:32.770Z,16.30
2018-05-02T09:08:01.958Z,16.40
2018-05-02T09:10:32.210Z,16.20
2018-05-02T09:13:02.756Z,15.90
2018-05-02T09:15:32.572Z,15.90
2018-05-02T09:18:02.388Z,15.70
2018-05-02T09:20:32.296Z,15.40
2018-05-02T09:23:02.075Z,15.20
2018-05-02T09:25:33.387Z,15.10
2018-05-02T09:28:03.147Z,15.00
2018-05-02T09:30:33.693Z,15.10
2018-05-02T09:33:03.614Z,15.00
2018-05-02T09:35:34.298Z,15.00
2018-05-02T09:38:03.891Z,14.90
2018-05-02T09:40:33.327Z,14.90
2018-05-02T09:43:03.108Z,14.80
2018-05-02T09:45:32.877Z,14.80
2018-05-02T09:48:03.457Z,14.90
2018-05-02T09:50:33.268Z,14.90
2018-05-02T09:53:03.049Z,15.00
2018-05-02T09:55:32.524Z,15.00
2018-05-02T09:58:03.171Z,15.00
2018-05-02T10:00:33.699Z,15.00
2018-05-02T10:03:03.895Z,15.10
2018-05-02T10:05:34.145Z,15.10
2018-05-02T10:08:04.353Z,15.30
2018-05-02T10:10:34.883Z,15.30
2018-05-02T10:13:05.109Z,15.20
2018-05-02T10:15:35.678Z,15.20
2018-05-02T10:18:05.652Z,15.20
2018-05-02T10:20:35.396Z,15.30
2018-05-02T10:23:04.753Z,15.30
2018-05-02T10:25:34.520Z,15.30
2018-05-02T10:28:04.386Z,15.20
2018-05-02T10:30:34.147Z,15.30
2018-05-02T10:33:03.945Z,15.40
2018-05-02T10:35:33.764Z,15.50
2018-05-02T10:38:03.193Z,15.40
2018-05-02T10:40:32.998Z,15.30
2018-05-02T10:43:02.785Z,15.60
2018-05-02T10:45:32.622Z,15.80
2018-05-02T10:48:02.061Z,15.60
2018-05-02T10:53:06.653Z,16.00
2018-05-02T10:55:36.546Z,16.00
2018-05-02T10:58:08.318Z,16.00
2018-05-02T11:00:38.117Z,15.90
2018-05-02T11:03:09.518Z,15.90
2018-05-02T11:05:39.507Z,15.90
2018-05-02T11:08:09.514Z,15.90
2018-05-02T11:10:40.218Z,16.10
2018-05-02T11:13:09.963Z,16.00
2018-05-02T11:15:39.733Z,15.80
2018-05-02T11:18:09.532Z,15.80
2018-05-02T11:20:39.401Z,15.90
2018-05-02T11:23:09.982Z,15.80
2018-05-02T11:25:39.839Z,15.80
2018-05-02T11:28:09.647Z,15.80
2018-05-02T11:30:39.202Z,15.80
2018-05-02T11:33:08.999Z,15.70
2018-05-02T11:35:39.027Z,15.90
2018-05-02T11:38:08.826Z,15.90
2018-05-02T11:40:38.728Z,15.80
2018-05-02T11:43:08.748Z,15.60
2018-05-02T11:45:38.539Z,15.40
2018-05-02T11:48:09.274Z,15.20
2018-05-02T11:50:39.822Z,15.10
2018-05-02T11:53:09.668Z,15.10
2018-05-02T11:55:39.505Z,15.10
2018-05-02T11:58:09.416Z,15.10
2018-05-02T12:00:39.220Z,15.10
2018-05-02T12:03:09.278Z,15.20
2018-05-02T12:05:39.841Z,15.20
2018-05-02T12:08:09.896Z,15.20
2018-05-02T12:10:39.685Z,15.20
2018-05-02T12:13:09.472Z,15.10
2018-05-02T12:15:39.302Z,15.00
2018-05-02T12:18:09.105Z,15.00
2018-05-02T12:20:38.971Z,15.00
2018-05-02T12:23:08.770Z,15.00
2018-05-02T12:25:38.593Z,15.10
2018-05-02T12:28:08.401Z,14.90
2018-05-02T12:30:38.215Z,14.90
2018-05-02T12:33:08.162Z,14.90
2018-05-02T12:35:38.107Z,14.90
2018-05-02T12:38:07.921Z,14.90
2018-05-02T12:40:37.726Z,14.90
2018-05-02T12:43:07.530Z,14.90
2018-05-02T12:45:37.346Z,15.00
2018-05-02T12:48:07.893Z,14.90
2018-05-02T12:50:37.697Z,14.90
2018-05-02T12:53:07.497Z,14.80
2018-05-02T12:55:38.068Z,14.80
2018-05-02T12:58:07.881Z,14.80
2018-05-02T13:00:37.693Z,14.90
2018-05-02T13:03:07.568Z,15.00
2018-05-02T13:05:37.408Z,15.00
2018-05-02T13:08:08.021Z,15.10
2018-05-02T13:10:38.001Z,15.40
2018-05-02T13:13:07.841Z,15.60
2018-05-02T13:15:38.437Z,16.00
2018-05-02T13:18:08.253Z,15.90
2018-05-02T13:20:38.036Z,16.10
2018-05-02T13:23:08.597Z,16.50
2018-05-02T13:25:38.904Z,16.80
2018-05-02T13:28:08.192Z,16.70
2018-05-02T13:30:37.718Z,16.90
2018-05-02T13:33:08.087Z,17.30
2018-05-02T13:35:37.793Z,17.30
2018-05-02T13:38:07.317Z,17.60
2018-05-02T13:40:36.859Z,17.80
2018-05-02T13:43:06.426Z,17.70
2018-05-02T13:45:35.932Z,17.70
2018-05-02T13:48:04.817Z,17.70
2018-05-02T13:50:34.353Z,17.90
2018-05-02T13:53:03.523Z,17.60
2018-05-02T13:55:33.037Z,17.70
2018-05-02T13:58:02.768Z,17.80
2018-05-02T14:00:32.784Z,18.10
2018-05-02T14:03:03.088Z,18.60
2018-05-02T14:05:32.657Z,18.60
2018-05-02T14:08:02.961Z,18.60
2018-05-02T14:10:33.251Z,18.70
2018-05-02T14:13:02.822Z,18.70
2018-05-02T14:15:32.327Z,19.00
2018-05-02T14:18:01.833Z,19.20
2018-05-02T14:20:32.172Z,19.90
2018-05-02T14:23:01.872Z,19.80
2018-05-02T14:25:31.390Z,19.70
2018-05-02T14:28:00.899Z,19.50
2018-05-02T14:30:30.426Z,19.00
2018-05-02T14:33:01.459Z,18.60
2018-05-02T14:35:30.980Z,18.60
2018-05-02T14:38:00.480Z,18.30
2018-05-02T14:40:30.030Z,18.20
2018-05-02T14:43:00.257Z,18.40
2018-05-02T14:45:29.812Z,18.40
2018-05-02T14:47:59.271Z,18.60
2018-05-02T14:50:28.794Z,18.50
2018-05-02T14:52:58.317Z,18.30
2018-05-02T14:55:27.848Z,17.90
2018-05-02T14:57:57.355Z,17.60
2018-05-02T15:00:26.916Z,17.20
2018-05-02T15:02:56.401Z,17.10
2018-05-02T15:05:26.682Z,17.10
2018-05-02T15:07:55.869Z,17.10
2018-05-02T15:10:25.392Z,17.20
2018-05-02T15:12:54.918Z,17.20
2018-05-02T15:15:24.416Z,17.10
2018-05-02T15:17:54.008Z,17.10
2018-05-02T15:20:23.695Z,17.00
2018-05-02T15:22:53.208Z,17.00
2018-05-02T15:25:22.828Z,17.10
2018-05-02T15:27:52.375Z,17.10
2018-05-02T15:30:22.056Z,17.20
2018-05-02T15:32:51.556Z,17.30
2018-05-02T15:35:20.833Z,17.40
2018-05-02T15:37:50.304Z,17.20
2018-05-02T15:40:20.639Z,17.10
2018-05-02T15:42:50.404Z,17.10
2018-05-02T15:45:19.541Z,17.00
2018-05-02T15:47:50.209Z,17.10
2018-05-02T15:50:19.711Z,17.10
2018-05-02T15:52:50.280Z,17.00
2018-05-02T15:55:20.240Z,17.00
2018-05-02T15:57:49.790Z,17.00
2018-05-02T16:00:19.577Z,16.80
2018-05-02T16:02:49.115Z,16.70
2018-05-02T16:05:18.872Z,16.70
2018-05-02T16:07:48.830Z,16.70
2018-05-02T16:10:18.632Z,16.70
2018-05-02T16:12:48.659Z,16.60
2018-05-02T16:15:18.095Z,16.50
2018-05-02T16:17:47.884Z,16.40
2018-05-02T16:20:17.651Z,16.40
2018-05-02T16:22:47.923Z,16.40
2018-05-02T16:25:17.681Z,16.40
2018-05-02T16:27:47.612Z,16.30
2018-05-02T16:30:17.514Z,16.20
2018-05-02T16:32:47.313Z,16.10
2018-05-02T16:35:17.089Z,16.00
2018-05-02T16:37:46.849Z,16.00
2018-05-02T16:40:17.384Z,15.90
2018-05-02T16:42:47.231Z,15.90
2018-05-02T16:45:16.986Z,15.80
2018-05-02T16:47:46.764Z,15.80
2018-05-02T16:50:16.539Z,15.70
2018-05-02T16:52:46.348Z,15.70
2018-05-02T16:55:17.294Z,15.70
2018-05-02T16:57:47.846Z,15.70
2018-05-02T17:00:18.412Z,15.60
2018-05-02T17:02:48.188Z,15.60
2018-05-02T17:05:18.008Z,15.60
2018-05-02T17:07:47.516Z,15.50
2018-05-02T17:10:17.333Z,15.50
2018-05-02T17:12:47.128Z,15.50
2018-05-02T17:15:16.915Z,15.50
2018-05-02T17:17:46.663Z,15.40
2018-05-02T17:20:16.405Z,15.40
2018-05-02T17:22:46.245Z,15.30
2018-05-02T17:25:16.035Z,15.30
2018-05-02T17:27:45.479Z,15.40
2018-05-02T17:30:15.267Z,15.30
2018-05-02T17:32:45.071Z,15.30
2018-05-02T17:35:14.915Z,15.30
2018-05-02T17:37:44.753Z,15.30
2018-05-02T17:40:14.796Z,15.30
2018-05-02T17:42:44.597Z,15.30
2018-05-02T17:45:14.364Z,15.30
2018-05-02T17:47:44.149Z,15.30
2018-05-02T17:50:13.923Z,15.30
2018-05-02T17:52:45.165Z,15.20
2018-05-02T17:55:15.045Z,15.20
2018-05-02T17:57:44.651Z,15.20
2018-05-02T18:00:14.431Z,15.20
2018-05-02T18:02:44.428Z,15.10
2018-05-02T18:05:14.240Z,15.20
2018-05-02T18:07:44.078Z,15.20
2018-05-02T18:10:13.916Z,15.20
2018-05-02T18:12:43.667Z,15.20
2018-05-02T18:15:14.206Z,15.20
2018-05-02T18:17:44.055Z,15.10
2018-05-02T18:20:13.886Z,15.20
2018-05-02T18:22:43.684Z,15.10
2018-05-02T18:25:13.481Z,15.10
2018-05-02T18:27:44.232Z,15.10
2018-05-02T18:30:14.100Z,15.10
2018-05-02T18:32:44.054Z,15.10
2018-05-02T18:35:13.824Z,15.10
2018-05-02T18:37:45.353Z,15.10
2018-05-02T18:40:15.158Z,15.00
2018-05-02T18:42:45.534Z,14.90
2018-05-02T18:45:15.549Z,14.90
2018-05-02T18:47:45.724Z,14.90
2018-05-02T18:50:15.675Z,14.90
2018-05-02T18:52:45.596Z,14.80
2018-05-02T18:55:15.388Z,14.70
2018-05-02T18:57:46.073Z,14.70
2018-05-02T19:00:16.019Z,14.60
2018-05-02T19:02:46.572Z,14.50
2018-05-02T19:05:16.371Z,14.50
2018-05-02T19:07:46.169Z,14.50
2018-05-02T19:10:16.250Z,14.40
2018-05-02T19:12:46.051Z,14.30
2018-05-02T19:15:16.625Z,14.30
2018-05-02T19:17:52.167Z,14.30
2018-05-02T19:20:27.381Z,14.30
2018-05-02T19:22:57.206Z,14.30
2018-05-02T19:25:32.405Z,14.30
2018-05-02T19:28:02.233Z,14.30
2018-05-02T19:30:32.111Z,14.30
2018-05-02T19:33:07.529Z,14.40
2018-05-02T19:35:37.338Z,14.40
2018-05-02T19:38:08.025Z,14.40
2018-05-02T19:40:43.999Z,14.40
2018-05-02T19:43:33.368Z,14.40
2018-05-02T19:46:03.157Z,14.30
2018-05-02T19:48:33.704Z,14.30
2018-05-02T19:51:09.016Z,14.30
2018-05-02T19:53:38.768Z,14.30
2018-05-02T19:56:08.229Z,14.30
2018-05-02T19:58:38.016Z,14.30
2018-05-02T20:01:13.717Z,14.30
2018-05-02T20:03:44.708Z,14.20
2018-05-02T20:06:14.594Z,14.20
2018-05-02T20:08:50.410Z,14.20
2018-05-02T20:11:25.612Z,14.30
2018-05-02T20:14:01.012Z,14.20
2018-05-02T20:16:30.797Z,14.30
2018-05-02T20:19:01.375Z,14.20
2018-05-02T20:21:31.335Z,14.20
2018-05-02T20:24:00.637Z,14.20
2018-05-02T20:26:30.450Z,14.20
2018-05-02T20:29:00.218Z,14.20
2018-05-02T20:31:31.534Z,14.10
2018-05-02T20:34:02.088Z,14.10
2018-05-02T20:36:31.633Z,14.10
2018-05-02T20:39:02.567Z,14.10
2018-05-02T20:41:32.498Z,14.10
2018-05-02T20:44:02.336Z,14.10
2018-05-02T20:46:32.375Z,14.00
2018-05-02T20:49:02.336Z,14.00
2018-05-02T20:51:32.121Z,14.00
2018-05-02T20:54:01.566Z,13.90
2018-05-02T20:56:31.373Z,13.90
2018-05-02T20:59:01.145Z,13.90
2018-05-02T21:01:30.911Z,13.90
2018-05-02T21:04:01.471Z,13.90
2018-05-02T21:06:31.287Z,13.90
2018-05-02T21:09:01.160Z,13.90
2018-05-02T21:11:30.905Z,13.90
2018-05-02T21:14:00.682Z,13.80
2018-05-02T21:16:30.443Z,13.90
2018-05-02T21:19:00.246Z,13.90
2018-05-02T21:21:30.041Z,13.90
2018-05-02T21:24:00.959Z,13.80
2018-05-02T21:26:30.749Z,13.80
2018-05-02T21:29:00.568Z,13.80
2018-05-02T21:31:30.315Z,13.80
2018-05-02T21:34:00.878Z,13.80
2018-05-02T21:36:30.697Z,13.70
2018-05-02T21:39:00.489Z,13.80
2018-05-02T21:41:30.234Z,13.80
2018-05-02T21:44:00.001Z,13.70
2018-05-02T21:46:30.556Z,13.70
2018-05-02T21:49:00.348Z,13.70
2018-05-02T21:51:30.112Z,13.80
2018-05-02T21:53:59.894Z,13.80
2018-05-02T21:56:29.663Z,13.80
2018-05-02T21:59:00.225Z,13.90
2018-05-02T22:01:29.723Z,13.90
2018-05-02T22:03:59.474Z,13.80
2018-05-02T22:06:29.267Z,13.80
2018-05-02T22:08:59.076Z,13.80
2018-05-02T22:11:28.833Z,13.80
2018-05-02T22:13:58.614Z,13.70
2018-05-02T22:16:28.396Z,13.80
2018-05-02T22:18:58.183Z,13.70
2018-05-02T22:21:27.708Z,13.70
2018-05-02T22:23:57.489Z,13.70
2018-05-02T22:26:27.248Z,13.70
2018-05-02T22:28:57.029Z,13.60
2018-05-02T22:31:26.846Z,13.60
2018-05-02T22:33:56.618Z,13.50
2018-05-02T22:36:26.435Z,13.40
2018-05-02T22:38:56.285Z,13.40
2018-05-02T22:41:26.798Z,13.40
2018-05-02T22:43:56.556Z,13.40
2018-05-02T22:46:26.304Z,13.40
2018-05-02T22:48:56.051Z,13.50
2018-05-02T22:51:26.628Z,13.50
2018-05-02T22:53:56.419Z,13.50
2018-05-02T22:56:26.202Z,13.50
2018-05-02T22:58:55.973Z,13.50
2018-05-02T23:01:25.760Z,13.60
2018-05-02T23:03:55.528Z,13.60
2018-05-02T23:06:25.273Z,13.50
2018-05-02T23:08:55.011Z,13.50
2018-05-02T23:11:24.821Z,13.50
2018-05-02T23:13:54.614Z,13.50
2018-05-02T23:16:24.401Z,13.40
2018-05-02T23:18:54.944Z,13.40
2018-05-02T23:21:25.508Z,13.40
2018-05-02T23:23:55.294Z,13.30
2018-05-02T23:26:25.060Z,13.40
2018-05-02T23:28:54.840Z,13.30
2018-05-02T23:31:24.591Z,13.30
2018-05-02T23:33:55.905Z,13.30
2018-05-02T23:36:25.660Z,13.20
2018-05-02T23:38:55.473Z,13.20
2018-05-02T23:41:25.307Z,13.30
2018-05-02T23:43:55.240Z,13.30
2018-05-02T23:46:24.997Z,13.30
2018-05-02T23:48:54.988Z,13.20
2018-05-02T23:51:24.804Z,13.20
2018-05-02T23:53:54.587Z,13.10
2018-05-02T23:56:24.401Z,13.20
2018-05-02T23:58:54.139Z,13.20
